Friday, January 19, 2018, 4:01 AM GMT
Back to Local

CWNE, North Point, Prince Edward Island

Location: , , Canada Lat: 47.083
Local Time: 4:01 AM GMT ( 4:01 GMT) Lon: -64
Time Zone: GMT Elev: 49 ft

Show me the last for .
Show Coded

Time T Td Feel RH Dir Speed Gust Alt SLP Vis Weather Sky Remarks
2018-01-19 03:00 19 17 - 88 - - - - 29.77 0 None
2018-01-19 02:00 17 15 - 89 - - - - 29.77 0 None
2018-01-19 01:00 18 15 - 86 - - - - 29.76 0 None
2018-01-19 00:00 21 19 - 89 - - - - 29.74 0 None
2018-01-18 23:00 23 19 - 85 - - - - 29.74 0 None
2018-01-18 22:00 17 14 - 88 - - - - 29.73 0 None
2018-01-18 21:00 19 16 - 87 - - - - 29.73 0 None
2018-01-18 20:00 22 18 - 85 - - - - 29.72 0 None
2018-01-18 19:00 24 19 - 81 - - - - 29.71 0 None
2018-01-18 18:00 24 20 - 83 - - - - 29.70 0 None
2018-01-18 17:00 25 22 - 86 - - - - 29.72 0 None
2018-01-18 16:00 26 26 - 97 - - - - 29.75 0 None
2018-01-18 15:00 25 23 - 91 - - - - 29.77 0 None
2018-01-18 14:00 25 23 - 94 - - - - 29.79 0 1-hr Precip Total: 0.01"
2018-01-18 13:00 24 23 - 96 - - - - 29.79 0 1-hr Precip Total: 0.01"
2018-01-18 12:00 23 22 - 95 - - - - 29.79 0 None
2018-01-18 11:00 23 21 - 93 - - - - 29.79 0 None
2018-01-18 10:00 26 25 - 95 - - - - 29.81 0 1-hr Precip Total: 0.01"
2018-01-18 09:00 26 25 - 94 - - - - 29.83 0 None
2018-01-18 08:00 27 26 - 95 - - - - 29.85 0 1-hr Precip Total: 0.01"
2018-01-18 07:00 27 26 - 94 - - - - 29.88 0 1-hr Precip Total: 0.01"
2018-01-18 06:00 27 26 - 94 - - - - 29.90 0 1-hr Precip Total: 0.01"
2018-01-18 05:00 27 26 - 94 - - - - 29.94 0 None

Support USWX by starting your Amazon purchase here.